sensor_id;sensor_type;location;lat;lon;timestamp;temperature;humidity
569;DHT22;269;48.884;9.192;2022-08-03T00:00:55;21.60;97.00
569;DHT22;269;48.884;9.192;2022-08-03T00:03:24;21.50;97.80
569;DHT22;269;48.884;9.192;2022-08-03T00:05:51;21.40;98.50
569;DHT22;269;48.884;9.192;2022-08-03T00:08:18;21.40;99.00
569;DHT22;269;48.884;9.192;2022-08-03T00:10:45;21.30;99.60
569;DHT22;269;48.884;9.192;2022-08-03T00:13:12;21.30;99.90
569;DHT22;269;48.884;9.192;2022-08-03T00:15:40;21.20;99.90
569;DHT22;269;48.884;9.192;2022-08-03T00:18:07;21.20;99.90
569;DHT22;269;48.884;9.192;2022-08-03T00:20:36;21.20;99.90
569;DHT22;269;48.884;9.192;2022-08-03T00:23:03;21.10;99.90
569;DHT22;269;48.884;9.192;2022-08-03T00:25:32;21.10;99.90
569;DHT22;269;48.884;9.192;2022-08-03T00:27:59;21.10;99.90
569;DHT22;269;48.884;9.192;2022-08-03T00:30:26;21.20;99.90
569;DHT22;269;48.884;9.192;2022-08-03T00:32:54;21.20;99.90
569;DHT22;269;48.884;9.192;2022-08-03T00:35:22;21.20;99.90
569;DHT22;269;48.884;9.192;2022-08-03T00:37:50;21.30;99.90
569;DHT22;269;48.884;9.192;2022-08-03T00:40:18;21.30;99.90
569;DHT22;269;48.884;9.192;2022-08-03T00:42:47;21.30;99.90
569;DHT22;269;48.884;9.192;2022-08-03T00:45:16;21.30;99.90
569;DHT22;269;48.884;9.192;2022-08-03T00:47:43;21.30;99.90
569;DHT22;269;48.884;9.192;2022-08-03T00:50:10;21.30;99.90
569;DHT22;269;48.884;9.192;2022-08-03T00:52:38;21.20;99.90
569;DHT22;269;48.884;9.192;2022-08-03T00:55:07;21.20;99.90
569;DHT22;269;48.884;9.192;2022-08-03T00:57:35;21.10;99.90
569;DHT22;269;48.884;9.192;2022-08-03T01:00:06;21.00;99.90
569;DHT22;269;48.884;9.192;2022-08-03T01:02:34;20.90;99.90
569;DHT22;269;48.884;9.192;2022-08-03T01:05:01;20.80;99.90
569;DHT22;269;48.884;9.192;2022-08-03T01:07:38;20.60;99.90
569;DHT22;269;48.884;9.192;2022-08-03T01:10:15;20.50;99.90
569;DHT22;269;48.884;9.192;2022-08-03T01:12:50;20.40;99.90
569;DHT22;269;48.884;9.192;2022-08-03T01:15:24;20.30;99.90
569;DHT22;269;48.884;9.192;2022-08-03T01:17:56;20.20;99.90
569;DHT22;269;48.884;9.192;2022-08-03T01:20:31;20.20;99.90
569;DHT22;269;48.884;9.192;2022-08-03T01:23:23;20.10;99.90
569;DHT22;269;48.884;9.192;2022-08-03T01:26:08;20.10;99.90
569;DHT22;269;48.884;9.192;2022-08-03T01:28:53;20.00;99.90
569;DHT22;269;48.884;9.192;2022-08-03T01:31:27;19.90;99.90
569;DHT22;269;48.884;9.192;2022-08-03T01:33:58;19.90;99.90
569;DHT22;269;48.884;9.192;2022-08-03T01:36:31;19.90;99.90
569;DHT22;269;48.884;9.192;2022-08-03T01:39:02;19.80;99.90
569;DHT22;269;48.884;9.192;2022-08-03T01:41:37;19.80;99.90
569;DHT22;269;48.884;9.192;2022-08-03T01:44:08;19.90;99.90
569;DHT22;269;48.884;9.192;2022-08-03T01:46:38;19.90;99.90
569;DHT22;269;48.884;9.192;2022-08-03T01:49:08;19.90;99.90
569;DHT22;269;48.884;9.192;2022-08-03T01:51:40;19.90;99.90
569;DHT22;269;48.884;9.192;2022-08-03T01:54:09;19.90;99.90
569;DHT22;269;48.884;9.192;2022-08-03T01:56:37;19.90;99.90
569;DHT22;269;48.884;9.192;2022-08-03T01:59:07;19.90;99.90
569;DHT22;269;48.884;9.192;2022-08-03T02:01:35;19.80;99.90
569;DHT22;269;48.884;9.192;2022-08-03T02:04:05;19.80;99.90
569;DHT22;269;48.884;9.192;2022-08-03T02:06:34;19.70;99.90
569;DHT22;269;48.884;9.192;2022-08-03T02:09:03;19.60;99.90
569;DHT22;269;48.884;9.192;2022-08-03T02:11:32;19.60;99.90
569;DHT22;269;48.884;9.192;2022-08-03T02:14:03;19.50;99.90
569;DHT22;269;48.884;9.192;2022-08-03T02:16:32;19.50;99.90
569;DHT22;269;48.884;9.192;2022-08-03T02:19:02;19.50;99.90
569;DHT22;269;48.884;9.192;2022-08-03T02:21:34;19.50;99.90
569;DHT22;269;48.884;9.192;2022-08-03T02:24:02;19.50;99.90
569;DHT22;269;48.884;9.192;2022-08-03T02:26:30;19.40;99.90
569;DHT22;269;48.884;9.192;2022-08-03T02:29:07;19.40;99.90
569;DHT22;269;48.884;9.192;2022-08-03T02:31:37;19.40;99.90
569;DHT22;269;48.884;9.192;2022-08-03T02:34:08;19.50;99.90
569;DHT22;269;48.884;9.192;2022-08-03T02:36:41;19.50;99.90
569;DHT22;269;48.884;9.192;2022-08-03T02:39:10;19.50;99.90
569;DHT22;269;48.884;9.192;2022-08-03T02:41:42;19.60;99.90
569;DHT22;269;48.884;9.192;2022-08-03T02:44:11;19.40;99.90
569;DHT22;269;48.884;9.192;2022-08-03T02:46:43;19.40;99.90
569;DHT22;269;48.884;9.192;2022-08-03T02:49:13;19.40;99.90
569;DHT22;269;48.884;9.192;2022-08-03T02:51:42;19.40;99.90
569;DHT22;269;48.884;9.192;2022-08-03T02:54:11;19.30;99.90
569;DHT22;269;48.884;9.192;2022-08-03T02:56:42;19.30;99.90
569;DHT22;269;48.884;9.192;2022-08-03T02:59:09;19.20;99.90
569;DHT22;269;48.884;9.192;2022-08-03T03:01:38;19.10;99.90
569;DHT22;269;48.884;9.192;2022-08-03T03:04:06;19.00;99.90
569;DHT22;269;48.884;9.192;2022-08-03T03:06:34;19.00;99.90
569;DHT22;269;48.884;9.192;2022-08-03T03:09:03;18.90;99.90
569;DHT22;269;48.884;9.192;2022-08-03T03:11:31;19.10;99.90
569;DHT22;269;48.884;9.192;2022-08-03T03:13:59;18.90;99.90
569;DHT22;269;48.884;9.192;2022-08-03T03:16:27;18.80;99.90
569;DHT22;269;48.884;9.192;2022-08-03T03:18:56;18.80;99.90
569;DHT22;269;48.884;9.192;2022-08-03T03:21:24;18.80;99.90
569;DHT22;269;48.884;9.192;2022-08-03T03:23:52;18.80;99.90
569;DHT22;269;48.884;9.192;2022-08-03T03:26:21;18.70;99.90
569;DHT22;269;48.884;9.192;2022-08-03T03:28:49;18.80;99.90
569;DHT22;269;48.884;9.192;2022-08-03T03:31:16;18.70;99.90
569;DHT22;269;48.884;9.192;2022-08-03T03:33:43;18.70;99.90
569;DHT22;269;48.884;9.192;2022-08-03T03:36:10;18.70;99.90
569;DHT22;269;48.884;9.192;2022-08-03T03:38:37;18.60;99.90
569;DHT22;269;48.884;9.192;2022-08-03T03:41:04;18.60;99.90
569;DHT22;269;48.884;9.192;2022-08-03T03:43:33;18.60;99.90
569;DHT22;269;48.884;9.192;2022-08-03T03:46:00;18.60;99.90
569;DHT22;269;48.884;9.192;2022-08-03T03:48:28;18.60;99.90
569;DHT22;269;48.884;9.192;2022-08-03T03:50:55;18.60;99.90
569;DHT22;269;48.884;9.192;2022-08-03T03:53:23;18.60;99.90
569;DHT22;269;48.884;9.192;2022-08-03T03:55:51;18.60;99.90
569;DHT22;269;48.884;9.192;2022-08-03T03:58:19;18.60;99.90
569;DHT22;269;48.884;9.192;2022-08-03T04:00:48;18.50;99.90
569;DHT22;269;48.884;9.192;2022-08-03T04:03:15;18.50;99.90
569;DHT22;269;48.884;9.192;2022-08-03T04:05:42;18.50;99.90
569;DHT22;269;48.884;9.192;2022-08-03T04:08:27;18.50;99.90
569;DHT22;269;48.884;9.192;2022-08-03T04:11:15;18.40;99.90
569;DHT22;269;48.884;9.192;2022-08-03T04:13:54;18.40;99.90
569;DHT22;269;48.884;9.192;2022-08-03T04:16:26;18.40;99.90
569;DHT22;269;48.884;9.192;2022-08-03T04:18:58;18.40;99.90
569;DHT22;269;48.884;9.192;2022-08-03T04:21:27;18.40;99.90
569;DHT22;269;48.884;9.192;2022-08-03T04:24:00;18.40;99.90
569;DHT22;269;48.884;9.192;2022-08-03T04:26:30;18.40;99.90
569;DHT22;269;48.884;9.192;2022-08-03T04:28:59;18.40;99.90
569;DHT22;269;48.884;9.192;2022-08-03T04:31:29;18.40;99.90
569;DHT22;269;48.884;9.192;2022-08-03T04:33:56;18.40;99.90
569;DHT22;269;48.884;9.192;2022-08-03T04:36:25;18.40;99.90
569;DHT22;269;48.884;9.192;2022-08-03T04:38:58;18.40;99.90
569;DHT22;269;48.884;9.192;2022-08-03T04:41:27;18.40;99.90
569;DHT22;269;48.884;9.192;2022-08-03T04:43:57;18.40;99.90
569;DHT22;269;48.884;9.192;2022-08-03T04:46:28;18.40;99.90
569;DHT22;269;48.884;9.192;2022-08-03T04:48:58;18.40;99.90
569;DHT22;269;48.884;9.192;2022-08-03T04:51:25;18.40;99.90
569;DHT22;269;48.884;9.192;2022-08-03T04:53:52;18.40;99.90
569;DHT22;269;48.884;9.192;2022-08-03T04:56:19;18.50;99.90
569;DHT22;269;48.884;9.192;2022-08-03T04:58:46;18.50;99.90
569;DHT22;269;48.884;9.192;2022-08-03T05:01:14;18.40;99.90
569;DHT22;269;48.884;9.192;2022-08-03T05:03:42;18.50;99.90
569;DHT22;269;48.884;9.192;2022-08-03T05:06:09;18.50;99.90
569;DHT22;269;48.884;9.192;2022-08-03T05:08:37;18.50;99.90
569;DHT22;269;48.884;9.192;2022-08-03T05:11:04;18.50;99.90
569;DHT22;269;48.884;9.192;2022-08-03T05:13:31;18.60;99.90
569;DHT22;269;48.884;9.192;2022-08-03T05:15:59;18.50;99.90
569;DHT22;269;48.884;9.192;2022-08-03T05:18:26;18.60;99.90
569;DHT22;269;48.884;9.192;2022-08-03T05:20:55;18.60;99.90
569;DHT22;269;48.884;9.192;2022-08-03T05:23:22;18.90;99.90
569;DHT22;269;48.884;9.192;2022-08-03T05:25:50;18.70;99.90
569;DHT22;269;48.884;9.192;2022-08-03T05:28:17;18.80;99.90
569;DHT22;269;48.884;9.192;2022-08-03T05:30:44;18.90;99.90
569;DHT22;269;48.884;9.192;2022-08-03T05:33:11;19.00;99.90
569;DHT22;269;48.884;9.192;2022-08-03T05:35:38;19.10;99.90
569;DHT22;269;48.884;9.192;2022-08-03T05:38:07;19.10;99.90
569;DHT22;269;48.884;9.192;2022-08-03T05:40:34;19.30;99.90
569;DHT22;269;48.884;9.192;2022-08-03T05:43:01;19.30;99.90
569;DHT22;269;48.884;9.192;2022-08-03T05:45:28;19.40;99.90
569;DHT22;269;48.884;9.192;2022-08-03T05:47:55;19.60;99.90
569;DHT22;269;48.884;9.192;2022-08-03T05:50:22;19.50;99.90
569;DHT22;269;48.884;9.192;2022-08-03T05:52:49;19.50;99.90
569;DHT22;269;48.884;9.192;2022-08-03T05:55:18;19.60;99.90
569;DHT22;269;48.884;9.192;2022-08-03T05:57:45;19.70;99.90
569;DHT22;269;48.884;9.192;2022-08-03T06:00:13;19.80;99.90
569;DHT22;269;48.884;9.192;2022-08-03T06:02:41;19.80;99.90
569;DHT22;269;48.884;9.192;2022-08-03T06:05:09;20.00;99.90
569;DHT22;269;48.884;9.192;2022-08-03T06:07:36;20.10;99.90
569;DHT22;269;48.884;9.192;2022-08-03T06:10:04;20.20;99.90
569;DHT22;269;48.884;9.192;2022-08-03T17:36:14;32.90;50.10
569;DHT22;269;48.884;9.192;2022-08-03T17:38:47;32.60;49.70
569;DHT22;269;48.884;9.192;2022-08-03T17:41:14;32.50;49.50
569;DHT22;269;48.884;9.192;2022-08-03T17:43:43;32.50;48.80
569;DHT22;269;48.884;9.192;2022-08-03T17:46:12;32.50;48.80
569;DHT22;269;48.884;9.192;2022-08-03T17:48:39;32.50;49.20
569;DHT22;269;48.884;9.192;2022-08-03T17:51:19;32.50;49.60
569;DHT22;269;48.884;9.192;2022-08-03T17:53:56;32.50;49.30
569;DHT22;269;48.884;9.192;2022-08-03T17:56:29;32.50;49.10
569;DHT22;269;48.884;9.192;2022-08-03T17:59:04;32.50;49.30
569;DHT22;269;48.884;9.192;2022-08-03T18:01:38;32.40;49.20
569;DHT22;269;48.884;9.192;2022-08-03T18:04:27;32.40;49.20
569;DHT22;269;48.884;9.192;2022-08-03T18:06:56;32.30;49.40
569;DHT22;269;48.884;9.192;2022-08-03T18:09:26;32.20;49.20
569;DHT22;269;48.884;9.192;2022-08-03T18:11:57;32.20;49.60
569;DHT22;269;48.884;9.192;2022-08-03T18:14:31;32.10;49.70
569;DHT22;269;48.884;9.192;2022-08-03T18:17:03;32.00;49.90
569;DHT22;269;48.884;9.192;2022-08-03T18:19:33;32.00;50.30
569;DHT22;269;48.884;9.192;2022-08-03T18:22:01;31.90;50.60
569;DHT22;269;48.884;9.192;2022-08-03T18:24:30;31.90;50.80
569;DHT22;269;48.884;9.192;2022-08-03T18:26:59;31.80;51.00
569;DHT22;269;48.884;9.192;2022-08-03T18:29:27;31.70;51.30
569;DHT22;269;48.884;9.192;2022-08-03T18:31:58;31.70;51.40
569;DHT22;269;48.884;9.192;2022-08-03T18:34:25;31.60;51.50
569;DHT22;269;48.884;9.192;2022-08-03T18:36:54;31.50;51.50
569;DHT22;269;48.884;9.192;2022-08-03T18:39:21;31.50;51.80
569;DHT22;269;48.884;9.192;2022-08-03T18:41:50;31.40;51.80
569;DHT22;269;48.884;9.192;2022-08-03T18:44:17;31.40;51.80
569;DHT22;269;48.884;9.192;2022-08-03T18:46:48;31.30;52.30
569;DHT22;269;48.884;9.192;2022-08-03T18:49:26;31.20;52.60
569;DHT22;269;48.884;9.192;2022-08-03T18:52:01;31.10;53.10
569;DHT22;269;48.884;9.192;2022-08-03T18:54:32;31.10;52.50
569;DHT22;269;48.884;9.192;2022-08-03T18:57:03;31.00;52.50
569;DHT22;269;48.884;9.192;2022-08-03T18:59:39;31.00;52.70
569;DHT22;269;48.884;9.192;2022-08-03T19:02:22;30.90;53.10
569;DHT22;269;48.884;9.192;2022-08-03T19:04:52;30.80;53.20
569;DHT22;269;48.884;9.192;2022-08-03T19:07:24;30.80;53.60
569;DHT22;269;48.884;9.192;2022-08-03T19:09:53;30.70;53.80
569;DHT22;269;48.884;9.192;2022-08-03T19:12:23;30.70;54.20
569;DHT22;269;48.884;9.192;2022-08-03T19:14:53;30.60;54.40
569;DHT22;269;48.884;9.192;2022-08-03T19:17:21;30.60;54.50
569;DHT22;269;48.884;9.192;2022-08-03T19:19:52;30.50;54.60
569;DHT22;269;48.884;9.192;2022-08-03T19:22:20;30.50;54.80
569;DHT22;269;48.884;9.192;2022-08-03T19:24:47;30.40;55.00
569;DHT22;269;48.884;9.192;2022-08-03T19:27:18;30.40;55.20
569;DHT22;269;48.884;9.192;2022-08-03T19:29:47;30.30;55.70
569;DHT22;269;48.884;9.192;2022-08-03T19:32:15;30.30;56.00
569;DHT22;269;48.884;9.192;2022-08-03T19:34:43;30.20;56.30
569;DHT22;269;48.884;9.192;2022-08-03T19:37:12;30.20;56.30
569;DHT22;269;48.884;9.192;2022-08-03T19:39:41;30.10;56.70
569;DHT22;269;48.884;9.192;2022-08-03T19:42:10;30.10;57.20
569;DHT22;269;48.884;9.192;2022-08-03T19:44:42;30.00;57.20
569;DHT22;269;48.884;9.192;2022-08-03T19:47:13;30.00;57.40
569;DHT22;269;48.884;9.192;2022-08-03T19:49:45;30.00;58.00
569;DHT22;269;48.884;9.192;2022-08-03T19:52:14;29.90;57.90
569;DHT22;269;48.884;9.192;2022-08-03T19:54:42;29.80;58.20
569;DHT22;269;48.884;9.192;2022-08-03T19:57:15;29.80;58.60
569;DHT22;269;48.884;9.192;2022-08-03T19:59:43;29.70;58.60
569;DHT22;269;48.884;9.192;2022-08-03T20:02:11;29.70;58.80
569;DHT22;269;48.884;9.192;2022-08-03T20:04:39;29.60;59.10
569;DHT22;269;48.884;9.192;2022-08-03T20:07:06;29.60;59.30
569;DHT22;269;48.884;9.192;2022-08-03T20:09:34;29.50;59.50
569;DHT22;269;48.884;9.192;2022-08-03T20:12:01;29.40;59.70
569;DHT22;269;48.884;9.192;2022-08-03T20:14:28;29.40;60.00
569;DHT22;269;48.884;9.192;2022-08-03T20:16:56;29.30;60.00
569;DHT22;269;48.884;9.192;2022-08-03T20:19:24;29.20;60.40
569;DHT22;269;48.884;9.192;2022-08-03T20:21:52;29.10;60.70
569;DHT22;269;48.884;9.192;2022-08-03T20:24:24;29.00;61.30
569;DHT22;269;48.884;9.192;2022-08-03T20:26:55;28.90;61.50
569;DHT22;269;48.884;9.192;2022-08-03T20:29:28;28.90;61.70
569;DHT22;269;48.884;9.192;2022-08-03T20:31:55;28.80;62.00
569;DHT22;269;48.884;9.192;2022-08-03T20:34:25;28.70;62.00
569;DHT22;269;48.884;9.192;2022-08-03T20:36:51;28.70;62.30
569;DHT22;269;48.884;9.192;2022-08-03T20:39:19;28.60;62.50
569;DHT22;269;48.884;9.192;2022-08-03T20:41:46;28.60;62.80
569;DHT22;269;48.884;9.192;2022-08-03T20:44:13;28.50;63.20
569;DHT22;269;48.884;9.192;2022-08-03T20:46:40;28.40;63.20
569;DHT22;269;48.884;9.192;2022-08-03T20:49:07;28.30;63.50
569;DHT22;269;48.884;9.192;2022-08-03T20:51:36;28.20;63.60
569;DHT22;269;48.884;9.192;2022-08-03T20:54:06;28.20;63.70
569;DHT22;269;48.884;9.192;2022-08-03T20:56:34;28.10;64.00
569;DHT22;269;48.884;9.192;2022-08-03T20:59:03;28.10;64.40
569;DHT22;269;48.884;9.192;2022-08-03T21:01:30;28.00;64.90
569;DHT22;269;48.884;9.192;2022-08-03T21:03:58;27.90;65.00
569;DHT22;269;48.884;9.192;2022-08-03T21:06:31;27.90;65.50
569;DHT22;269;48.884;9.192;2022-08-03T21:09:03;27.80;65.70
569;DHT22;269;48.884;9.192;2022-08-03T21:11:37;27.80;66.00
569;DHT22;269;48.884;9.192;2022-08-03T21:14:10;27.70;66.30
569;DHT22;269;48.884;9.192;2022-08-03T21:16:43;27.70;66.50
569;DHT22;269;48.884;9.192;2022-08-03T21:19:11;27.60;66.90
569;DHT22;269;48.884;9.192;2022-08-03T21:21:38;27.60;67.30
569;DHT22;269;48.884;9.192;2022-08-03T21:24:12;27.50;67.60
569;DHT22;269;48.884;9.192;2022-08-03T21:26:39;27.40;67.70
569;DHT22;269;48.884;9.192;2022-08-03T21:29:08;27.40;68.20
569;DHT22;269;48.884;9.192;2022-08-03T21:31:39;27.30;68.60
569;DHT22;269;48.884;9.192;2022-08-03T21:34:06;27.30;69.30
569;DHT22;269;48.884;9.192;2022-08-03T21:36:35;27.20;68.80
569;DHT22;269;48.884;9.192;2022-08-03T21:39:04;27.10;68.60
569;DHT22;269;48.884;9.192;2022-08-03T21:41:34;27.10;69.40
569;DHT22;269;48.884;9.192;2022-08-03T21:44:02;27.00;68.60
569;DHT22;269;48.884;9.192;2022-08-03T21:46:33;27.00;68.70
569;DHT22;269;48.884;9.192;2022-08-03T21:49:03;26.90;68.90
569;DHT22;269;48.884;9.192;2022-08-03T21:51:31;26.90;69.20
569;DHT22;269;48.884;9.192;2022-08-03T21:54:01;26.80;69.40
569;DHT22;269;48.884;9.192;2022-08-03T21:56:33;26.80;69.60
569;DHT22;269;48.884;9.192;2022-08-03T21:59:04;26.70;69.90
569;DHT22;269;48.884;9.192;2022-08-03T22:01:34;26.60;70.10
569;DHT22;269;48.884;9.192;2022-08-03T22:04:03;26.60;70.40
569;DHT22;269;48.884;9.192;2022-08-03T22:06:31;26.50;70.70
569;DHT22;269;48.884;9.192;2022-08-03T22:08:58;26.50;71.00
569;DHT22;269;48.884;9.192;2022-08-03T22:11:25;26.40;71.20
569;DHT22;269;48.884;9.192;2022-08-03T22:13:52;26.40;71.60
569;DHT22;269;48.884;9.192;2022-08-03T22:16:21;26.30;71.80
569;DHT22;269;48.884;9.192;2022-08-03T22:18:48;26.20;71.90
569;DHT22;269;48.884;9.192;2022-08-03T22:21:15;26.20;72.40
569;DHT22;269;48.884;9.192;2022-08-03T22:23:45;26.10;72.70
569;DHT22;269;48.884;9.192;2022-08-03T22:26:17;26.10;73.20
569;DHT22;269;48.884;9.192;2022-08-03T22:28:44;26.00;73.30
569;DHT22;269;48.884;9.192;2022-08-03T22:31:11;25.90;73.60
569;DHT22;269;48.884;9.192;2022-08-03T22:33:42;25.90;73.80
569;DHT22;269;48.884;9.192;2022-08-03T22:36:10;25.80;74.30
569;DHT22;269;48.884;9.192;2022-08-03T22:38:38;25.70;74.60
569;DHT22;269;48.884;9.192;2022-08-03T22:41:05;25.70;75.00
569;DHT22;269;48.884;9.192;2022-08-03T22:43:33;25.70;75.40
569;DHT22;269;48.884;9.192;2022-08-03T22:46:02;25.60;75.60
569;DHT22;269;48.884;9.192;2022-08-03T22:48:32;25.50;75.90
569;DHT22;269;48.884;9.192;2022-08-03T22:51:01;25.50;76.20
569;DHT22;269;48.884;9.192;2022-08-03T22:53:29;25.40;76.50
569;DHT22;269;48.884;9.192;2022-08-03T22:55:56;25.30;76.90
569;DHT22;269;48.884;9.192;2022-08-03T22:58:24;25.30;77.10
569;DHT22;269;48.884;9.192;2022-08-03T23:00:53;25.20;77.30
569;DHT22;269;48.884;9.192;2022-08-03T23:03:24;25.10;77.60
569;DHT22;269;48.884;9.192;2022-08-03T23:05:53;25.10;78.20
569;DHT22;269;48.884;9.192;2022-08-03T23:08:23;25.00;78.60
569;DHT22;269;48.884;9.192;2022-08-03T23:10:52;24.90;79.60
569;DHT22;269;48.884;9.192;2022-08-03T23:13:23;24.80;79.00
569;DHT22;269;48.884;9.192;2022-08-03T23:15:58;24.80;79.60
569;DHT22;269;48.884;9.192;2022-08-03T23:18:27;24.70;80.30
569;DHT22;269;48.884;9.192;2022-08-03T23:20:57;24.70;80.70
569;DHT22;269;48.884;9.192;2022-08-03T23:23:28;24.60;81.20
569;DHT22;269;48.884;9.192;2022-08-03T23:25:55;24.60;81.80
569;DHT22;269;48.884;9.192;2022-08-03T23:28:24;24.50;82.30
569;DHT22;269;48.884;9.192;2022-08-03T23:30:52;24.50;82.70
569;DHT22;269;48.884;9.192;2022-08-03T23:33:21;24.40;83.00
569;DHT22;269;48.884;9.192;2022-08-03T23:35:48;24.40;83.10
569;DHT22;269;48.884;9.192;2022-08-03T23:38:27;24.40;83.40
569;DHT22;269;48.884;9.192;2022-08-03T23:40:56;24.30;83.60
569;DHT22;269;48.884;9.192;2022-08-03T23:43:24;24.30;83.90
569;DHT22;269;48.884;9.192;2022-08-03T23:45:54;24.30;84.00
569;DHT22;269;48.884;9.192;2022-08-03T23:48:22;24.20;84.10
569;DHT22;269;48.884;9.192;2022-08-03T23:50:56;24.20;84.40
569;DHT22;269;48.884;9.192;2022-08-03T23:53:33;24.20;84.70
569;DHT22;269;48.884;9.192;2022-08-03T23:56:11;24.30;85.00
569;DHT22;269;48.884;9.192;2022-08-03T23:58:50;24.10;85.20
